• Join FlightAware (Why Join?)
  • Login
  • US Flag 
10:50PM EDT


 

Airport Tracker/Info


-or-


 

Live Flight TrackerFlight Track Log ✈ UAL3835 ✈ 26-Apr-2013 ✈ KEWR - KPIT

Flight Track Log - Related Links

Times and Time Zones

All times are in EDT time to prevent confusion due to time zone crossing. See the UAL3835 flight status page for this flight to view local times or setup timezone preferences in your user account.

Time Position Orientation Groundspeed Altitude Reporting Facility
EDT Latitude Longitude Course Direction KTS MPH feet Rate Location/Type
06:58AM 40.7500 -74.1000 270° West 235 270 2,700  Level New York TRACON
06:59AM 40.8000 -74.1000 360° North 254 292 3,700 1,920 Climbing New York TRACON
07:00AM 40.7296 -74.5091 303° West  Level FlightAware Approximate
07:00AM 40.8000 -74.1833 270° West 247 284 6,600  Level New York TRACON
07:01AM 40.7435 -74.6276 277° West  Level FlightAware Approximate
07:01AM 40.8167 -74.2833 282° West 254 292 9,500  Level New York TRACON
07:02AM 40.7537 -74.7475 276° West  Level FlightAware Approximate
07:02AM 40.8000 -74.3500 252° West 255 293 11,800  Level New York TRACON
07:03AM 40.7629 -74.8677 276° West  Level FlightAware Approximate
07:03AM 40.7167 -74.3500 180° South 280 322 14,100  Level New York TRACON
07:04AM 40.7833 -74.9836 270° West  Level FlightAware Approximate
07:04AM 40.6667 -74.4000 217° Southwest 274 315 16,100  Level New York TRACON
07:06AM 40.7906 -74.4219 352° North 280 322 17,000 300 Climbing New York Center
07:07AM 40.8392 -74.4711 323° Northwest 248 285 17,000  Level New York Center
07:08AM 40.8350 -74.5997 268° West 249 287 17,000  Level New York Center
07:09AM 40.8292 -74.7092 266° West 311 358 17,100 780 Climbing New York Center
07:10AM 40.8119 -74.8481 261° West 347 399 18,600 1,440 Climbing New York Center
07:11AM 40.7897 -74.9508 254° West 347 399 20,000 1,320 Climbing New York Center
07:12AM 40.7644 -75.0753 255° West 353 406 21,300 1,260 Climbing New York Center
07:13AM 40.7367 -75.2022 254° West 358 412 22,500 1,200 Climbing New York Center
07:14AM 40.7111 -75.3267 255° West 363 418 23,800 1,260 Climbing New York Center
07:15AM 40.6814 -75.4533 253° West 363 418 25,100 1,260 Climbing New York Center
07:16AM 40.6553 -75.5800 255° West 363 418 26,300 1,200 Climbing New York Center
07:17AM 40.6294 -75.7039 255° West 353 406 27,600 780 Climbing New York Center
07:18AM 40.5989 -75.8303 252° West 353 406 28,000 180 Climbing New York Center
07:19AM 40.5478 -75.9578 242° Southwest 372 428 28,000  Level New York Center
07:20AM 40.4981 -76.0878 243° Southwest 387 445 28,000  Level New York Center
07:21AM 40.4481 -76.2231 244° Southwest 406 467 28,000  Level New York Center
07:22AM 40.3983 -76.3525 243° Southwest 406 467 28,000  Level New York Center
07:23AM 40.3589 -76.4828 248° West 398 458 28,000  Level New York Center
07:24AM 40.3253 -76.6136 251° West 388 447 28,000  Level New York Center
07:25AM 40.2894 -76.7439 250° West 383 441 28,000  Level New York Center
07:26AM 40.2556 -76.8769 252° West 383 441 28,000  Level New York Center
07:27AM 40.2194 -77.0097 250° West 383 441 28,000 -300 Level New York Center
07:28AM 40.1853 -77.1425 251° West 388 447 27,500 -600 Descending New York Center
07:29AM 40.1481 -77.2914 252° West 388 447 26,800 -900 Descending New York Center
07:30AM 40.1433 -77.4131 267° West 388 447 25,700 -1,140 Descending New York Center
07:32AM 40.1044 -77.6514 258° West 359 413 23,700 -1,020 Descending Cleveland Center
07:33AM 40.0553 -77.7703 242° Southwest 364 419 22,800 -900 Descending Cleveland Center
07:34AM 40.0039 -77.8836 239° Southwest 364 419 22,000 -420 Descending Cleveland Center
07:35AM 39.9733 -78.0039 252° West 361 415 22,000  Level Cleveland Center
07:36AM 39.9906 -78.1253 281° West 342 394 22,000  Level Cleveland Center
07:37AM 40.0058 -78.2494 279° West 337 388 22,000  Level Cleveland Center
07:38AM 40.0231 -78.3897 279° West 352 405 22,000  Level Cleveland Center
07:39AM 40.0381 -78.5167 279° West 352 405 22,000  Level Cleveland Center
07:40AM 40.0569 -78.6411 281° West 352 405 22,000  Level Cleveland Center
07:41AM 40.0736 -78.7681 280° West 352 405 22,000  Level Cleveland Center
07:42AM 40.0900 -78.8950 280° West 352 405 22,000 -780 Level Cleveland Center
07:43AM 40.1064 -79.0197 280° West 352 405 20,500 -1,860 Descending Cleveland Center
07:44AM 40.1228 -79.1414 280° West 352 405 18,300 -1,920 Descending Cleveland Center
07:45AM 40.1367 -79.2578 279° West 346 398 16,700 -1,920 Descending Cleveland Center
07:46AM 40.1544 -79.3742 281° West 340 391 14,500 -2,160 Descending Cleveland Center
07:47AM 40.1683 -79.4856 279° West 324 373 12,400 -2,100 Descending Cleveland Center
07:48AM 40.1817 -79.5939 279° West 318 366 10,400 -1,200 Descending Cleveland Center
07:49AM 40.1972 -79.6997 281° West 313 360 10,000 -300 Descending Cleveland Center
07:50AM 40.2642 -79.7558 327° Northwest 271 312 9,800 -1,200 Descending Cleveland Center
07:51AM 40.3292 -79.7933 336° Northwest 252 290 7,600 -1,920 Descending Cleveland Center
07:52AM 40.3900 -79.8333 333° Northwest 252 290 6,000 -1,620 Descending Cleveland Center
07:53AM 40.4444 -79.8875 323° Northwest 252 290 4,400 -1,020 Descending Cleveland Center
07:54AM 40.4658 -79.9717 288° West 236 272 4,000 -480 Descending Cleveland Center
07:55AM 40.4828 -80.0564 285° West 236 272 3,500 -540 Descending Cleveland Center